sensor_id;sensor_type;location;lat;lon;timestamp;temperature;humidity
19781;DHT22;10050;55.492;13.506;2023-04-08T00:01:06;4.60;99.90
19781;DHT22;10050;55.492;13.506;2023-04-08T00:03:32;4.60;99.90
19781;DHT22;10050;55.492;13.506;2023-04-08T00:05:58;4.60;99.90
19781;DHT22;10050;55.492;13.506;2023-04-08T00:08:25;4.50;99.90
19781;DHT22;10050;55.492;13.506;2023-04-08T00:10:50;4.50;99.90
19781;DHT22;10050;55.492;13.506;2023-04-08T00:13:16;4.40;99.90
19781;DHT22;10050;55.492;13.506;2023-04-08T00:15:42;4.40;99.90
19781;DHT22;10050;55.492;13.506;2023-04-08T00:18:07;4.40;99.90
19781;DHT22;10050;55.492;13.506;2023-04-08T00:20:33;4.40;99.90
19781;DHT22;10050;55.492;13.506;2023-04-08T00:22:58;4.40;99.90
19781;DHT22;10050;55.492;13.506;2023-04-08T00:25:24;4.40;99.90
19781;DHT22;10050;55.492;13.506;2023-04-08T00:27:50;4.40;99.90
19781;DHT22;10050;55.492;13.506;2023-04-08T00:30:16;4.40;99.90
19781;DHT22;10050;55.492;13.506;2023-04-08T00:32:42;4.40;99.90
19781;DHT22;10050;55.492;13.506;2023-04-08T00:35:08;4.40;99.90
19781;DHT22;10050;55.492;13.506;2023-04-08T00:37:33;4.30;99.90
19781;DHT22;10050;55.492;13.506;2023-04-08T00:39:59;4.30;99.90
19781;DHT22;10050;55.492;13.506;2023-04-08T00:42:25;4.30;99.90
19781;DHT22;10050;55.492;13.506;2023-04-08T00:44:51;4.30;99.90
19781;DHT22;10050;55.492;13.506;2023-04-08T00:47:16;4.30;99.90
19781;DHT22;10050;55.492;13.506;2023-04-08T00:49:43;4.20;99.90
19781;DHT22;10050;55.492;13.506;2023-04-08T00:52:09;4.20;99.90
19781;DHT22;10050;55.492;13.506;2023-04-08T00:54:36;4.20;99.90
19781;DHT22;10050;55.492;13.506;2023-04-08T00:57:02;4.20;99.90
19781;DHT22;10050;55.492;13.506;2023-04-08T00:59:29;4.20;99.90
19781;DHT22;10050;55.492;13.506;2023-04-08T01:02:17;4.20;99.90
19781;DHT22;10050;55.492;13.506;2023-04-08T01:07:32;4.20;99.90
19781;DHT22;10050;55.492;13.506;2023-04-08T01:10:06;4.30;99.90
19781;DHT22;10050;55.492;13.506;2023-04-08T01:12:41;4.20;99.90
19781;DHT22;10050;55.492;13.506;2023-04-08T01:15:10;4.20;99.90
19781;DHT22;10050;55.492;13.506;2023-04-08T01:17:37;4.20;99.90
19781;DHT22;10050;55.492;13.506;2023-04-08T01:20:04;4.20;99.90
19781;DHT22;10050;55.492;13.506;2023-04-08T01:22:36;4.20;99.90
19781;DHT22;10050;55.492;13.506;2023-04-08T01:25:07;4.20;99.90
19781;DHT22;10050;55.492;13.506;2023-04-08T01:27:36;4.20;99.90
19781;DHT22;10050;55.492;13.506;2023-04-08T01:30:03;4.20;99.90
19781;DHT22;10050;55.492;13.506;2023-04-08T01:32:31;4.20;99.90
19781;DHT22;10050;55.492;13.506;2023-04-08T01:34:57;4.20;99.90
19781;DHT22;10050;55.492;13.506;2023-04-08T01:37:24;4.30;99.90
19781;DHT22;10050;55.492;13.506;2023-04-08T01:39:51;4.30;99.90
19781;DHT22;10050;55.492;13.506;2023-04-08T01:42:17;4.30;99.90
19781;DHT22;10050;55.492;13.506;2023-04-08T01:44:43;4.30;99.90
19781;DHT22;10050;55.492;13.506;2023-04-08T01:47:10;4.30;99.90
19781;DHT22;10050;55.492;13.506;2023-04-08T01:49:37;4.30;99.90
19781;DHT22;10050;55.492;13.506;2023-04-08T01:52:05;4.30;99.90
19781;DHT22;10050;55.492;13.506;2023-04-08T01:54:33;4.30;99.90
19781;DHT22;10050;55.492;13.506;2023-04-08T01:57:01;4.20;99.90
19781;DHT22;10050;55.492;13.506;2023-04-08T01:59:30;4.30;99.90
19781;DHT22;10050;55.492;13.506;2023-04-08T02:02:01;4.20;99.90
19781;DHT22;10050;55.492;13.506;2023-04-08T02:04:28;4.20;99.90
19781;DHT22;10050;55.492;13.506;2023-04-08T02:06:55;4.20;99.90
19781;DHT22;10050;55.492;13.506;2023-04-08T02:09:21;4.20;99.90
19781;DHT22;10050;55.492;13.506;2023-04-08T02:11:46;4.20;99.90
19781;DHT22;10050;55.492;13.506;2023-04-08T02:14:12;4.20;99.90
19781;DHT22;10050;55.492;13.506;2023-04-08T02:16:52;4.20;99.90
19781;DHT22;10050;55.492;13.506;2023-04-08T02:19:25;4.20;99.90
19781;DHT22;10050;55.492;13.506;2023-04-08T02:21:56;4.30;99.90
19781;DHT22;10050;55.492;13.506;2023-04-08T02:24:25;4.30;99.90
19781;DHT22;10050;55.492;13.506;2023-04-08T02:26:52;4.30;99.90
19781;DHT22;10050;55.492;13.506;2023-04-08T02:29:20;4.30;99.90
19781;DHT22;10050;55.492;13.506;2023-04-08T02:31:48;4.30;99.90
19781;DHT22;10050;55.492;13.506;2023-04-08T02:34:15;4.30;99.90
19781;DHT22;10050;55.492;13.506;2023-04-08T02:36:42;4.30;99.90
19781;DHT22;10050;55.492;13.506;2023-04-08T02:39:10;4.40;99.90
19781;DHT22;10050;55.492;13.506;2023-04-08T02:41:36;4.40;99.90
19781;DHT22;10050;55.492;13.506;2023-04-08T02:44:01;4.30;99.90
19781;DHT22;10050;55.492;13.506;2023-04-08T02:46:27;4.40;99.90
19781;DHT22;10050;55.492;13.506;2023-04-08T02:48:53;4.40;99.90
19781;DHT22;10050;55.492;13.506;2023-04-08T02:51:18;4.40;99.90
19781;DHT22;10050;55.492;13.506;2023-04-08T02:53:44;4.40;99.90
19781;DHT22;10050;55.492;13.506;2023-04-08T02:56:10;4.50;99.90
19781;DHT22;10050;55.492;13.506;2023-04-08T02:58:36;4.50;99.90
19781;DHT22;10050;55.492;13.506;2023-04-08T03:01:02;4.50;99.90
19781;DHT22;10050;55.492;13.506;2023-04-08T03:03:27;4.60;99.90
19781;DHT22;10050;55.492;13.506;2023-04-08T03:05:57;4.50;99.90
19781;DHT22;10050;55.492;13.506;2023-04-08T03:08:23;4.50;99.90
19781;DHT22;10050;55.492;13.506;2023-04-08T03:10:49;4.60;99.90
19781;DHT22;10050;55.492;13.506;2023-04-08T03:13:15;4.60;99.90
19781;DHT22;10050;55.492;13.506;2023-04-08T03:15:41;4.60;99.90
19781;DHT22;10050;55.492;13.506;2023-04-08T03:18:07;4.60;99.90
19781;DHT22;10050;55.492;13.506;2023-04-08T03:20:33;4.60;99.90
19781;DHT22;10050;55.492;13.506;2023-04-08T03:22:59;4.60;99.90
19781;DHT22;10050;55.492;13.506;2023-04-08T03:25:24;4.60;99.90
19781;DHT22;10050;55.492;13.506;2023-04-08T03:27:50;4.70;99.90
19781;DHT22;10050;55.492;13.506;2023-04-08T03:30:16;4.60;99.90
19781;DHT22;10050;55.492;13.506;2023-04-08T03:32:42;4.70;99.90
19781;DHT22;10050;55.492;13.506;2023-04-08T03:35:08;4.60;99.90
19781;DHT22;10050;55.492;13.506;2023-04-08T03:37:33;4.60;99.90
19781;DHT22;10050;55.492;13.506;2023-04-08T03:39:59;4.60;99.90
19781;DHT22;10050;55.492;13.506;2023-04-08T03:42:25;4.70;99.90
19781;DHT22;10050;55.492;13.506;2023-04-08T03:44:51;4.70;99.90
19781;DHT22;10050;55.492;13.506;2023-04-08T03:47:17;4.70;99.90
19781;DHT22;10050;55.492;13.506;2023-04-08T03:49:42;4.70;99.90
19781;DHT22;10050;55.492;13.506;2023-04-08T03:52:08;4.70;99.90
19781;DHT22;10050;55.492;13.506;2023-04-08T03:54:34;4.70;99.90
19781;DHT22;10050;55.492;13.506;2023-04-08T03:56:59;4.70;99.90
19781;DHT22;10050;55.492;13.506;2023-04-08T03:59:25;4.70;99.90
19781;DHT22;10050;55.492;13.506;2023-04-08T04:01:50;4.70;99.90
19781;DHT22;10050;55.492;13.506;2023-04-08T04:04:18;4.60;99.90
19781;DHT22;10050;55.492;13.506;2023-04-08T04:06:43;4.70;99.90
19781;DHT22;10050;55.492;13.506;2023-04-08T04:09:09;4.60;99.90
19781;DHT22;10050;55.492;13.506;2023-04-08T04:11:35;4.60;99.90
19781;DHT22;10050;55.492;13.506;2023-04-08T04:14:01;4.60;99.90
19781;DHT22;10050;55.492;13.506;2023-04-08T04:16:27;4.50;99.90
19781;DHT22;10050;55.492;13.506;2023-04-08T04:18:52;4.50;99.90
19781;DHT22;10050;55.492;13.506;2023-04-08T04:21:18;4.50;99.90
19781;DHT22;10050;55.492;13.506;2023-04-08T04:23:44;4.40;99.90
19781;DHT22;10050;55.492;13.506;2023-04-08T04:26:10;4.50;99.90
19781;DHT22;10050;55.492;13.506;2023-04-08T04:28:36;4.50;99.90
19781;DHT22;10050;55.492;13.506;2023-04-08T04:31:02;4.50;99.90
19781;DHT22;10050;55.492;13.506;2023-04-08T04:33:28;4.50;99.90
19781;DHT22;10050;55.492;13.506;2023-04-08T04:35:54;4.50;99.90
19781;DHT22;10050;55.492;13.506;2023-04-08T04:38:20;4.50;99.90
19781;DHT22;10050;55.492;13.506;2023-04-08T04:40:46;4.50;99.90
19781;DHT22;10050;55.492;13.506;2023-04-08T04:43:11;4.50;99.90
19781;DHT22;10050;55.492;13.506;2023-04-08T04:45:37;4.50;99.90
19781;DHT22;10050;55.492;13.506;2023-04-08T04:48:04;4.50;99.90
19781;DHT22;10050;55.492;13.506;2023-04-08T04:50:29;4.50;99.90
19781;DHT22;10050;55.492;13.506;2023-04-08T04:52:55;4.60;99.90
19781;DHT22;10050;55.492;13.506;2023-04-08T04:55:21;4.60;99.90
19781;DHT22;10050;55.492;13.506;2023-04-08T04:57:47;4.60;99.90
19781;DHT22;10050;55.492;13.506;2023-04-08T05:00:14;4.70;99.90
19781;DHT22;10050;55.492;13.506;2023-04-08T05:02:40;4.70;99.90
19781;DHT22;10050;55.492;13.506;2023-04-08T05:05:06;4.70;99.90
19781;DHT22;10050;55.492;13.506;2023-04-08T05:07:35;4.80;99.90
19781;DHT22;10050;55.492;13.506;2023-04-08T05:10:01;4.80;99.90
19781;DHT22;10050;55.492;13.506;2023-04-08T05:12:28;4.80;99.90
19781;DHT22;10050;55.492;13.506;2023-04-08T05:14:53;4.90;99.90
19781;DHT22;10050;55.492;13.506;2023-04-08T05:17:19;4.90;99.90
19781;DHT22;10050;55.492;13.506;2023-04-08T05:19:45;5.00;99.90
19781;DHT22;10050;55.492;13.506;2023-04-08T05:22:10;5.00;99.90
19781;DHT22;10050;55.492;13.506;2023-04-08T05:24:36;5.00;99.90
19781;DHT22;10050;55.492;13.506;2023-04-08T05:27:02;5.00;99.90
19781;DHT22;10050;55.492;13.506;2023-04-08T05:29:27;5.10;99.90
19781;DHT22;10050;55.492;13.506;2023-04-08T05:31:53;5.20;99.90
19781;DHT22;10050;55.492;13.506;2023-04-08T05:34:20;5.30;99.90
19781;DHT22;10050;55.492;13.506;2023-04-08T05:36:48;5.30;99.90
19781;DHT22;10050;55.492;13.506;2023-04-08T05:39:17;5.40;99.90
19781;DHT22;10050;55.492;13.506;2023-04-08T05:41:42;5.50;99.90
19781;DHT22;10050;55.492;13.506;2023-04-08T05:44:09;5.60;99.90
19781;DHT22;10050;55.492;13.506;2023-04-08T05:46:35;5.70;99.90
19781;DHT22;10050;55.492;13.506;2023-04-08T05:49:00;5.80;99.90
19781;DHT22;10050;55.492;13.506;2023-04-08T05:51:26;5.90;99.90
19781;DHT22;10050;55.492;13.506;2023-04-08T05:53:51;5.90;99.90
19781;DHT22;10050;55.492;13.506;2023-04-08T05:56:17;6.00;99.90
19781;DHT22;10050;55.492;13.506;2023-04-08T05:58:43;6.00;99.90
19781;DHT22;10050;55.492;13.506;2023-04-08T06:01:08;6.10;99.90
19781;DHT22;10050;55.492;13.506;2023-04-08T06:03:34;6.20;99.90
19781;DHT22;10050;55.492;13.506;2023-04-08T06:06:00;6.30;99.90
19781;DHT22;10050;55.492;13.506;2023-04-08T06:08:25;6.40;99.90
19781;DHT22;10050;55.492;13.506;2023-04-08T06:10:51;6.40;99.90
19781;DHT22;10050;55.492;13.506;2023-04-08T06:13:17;6.60;99.90
19781;DHT22;10050;55.492;13.506;2023-04-08T06:15:44;6.60;99.90
19781;DHT22;10050;55.492;13.506;2023-04-08T06:18:10;6.70;99.90
19781;DHT22;10050;55.492;13.506;2023-04-08T06:20:36;6.70;99.90
19781;DHT22;10050;55.492;13.506;2023-04-08T06:23:01;6.80;99.90
19781;DHT22;10050;55.492;13.506;2023-04-08T06:25:27;6.90;99.90
19781;DHT22;10050;55.492;13.506;2023-04-08T06:27:52;6.90;99.90
19781;DHT22;10050;55.492;13.506;2023-04-08T06:30:18;7.00;99.90
19781;DHT22;10050;55.492;13.506;2023-04-08T06:32:43;7.00;99.90
19781;DHT22;10050;55.492;13.506;2023-04-08T06:35:12;7.10;99.90
19781;DHT22;10050;55.492;13.506;2023-04-08T06:37:37;7.20;99.90
19781;DHT22;10050;55.492;13.506;2023-04-08T06:40:06;7.30;99.90
19781;DHT22;10050;55.492;13.506;2023-04-08T06:42:32;7.40;99.90
19781;DHT22;10050;55.492;13.506;2023-04-08T06:44:57;7.50;99.90
19781;DHT22;10050;55.492;13.506;2023-04-08T06:47:23;7.60;99.90
19781;DHT22;10050;55.492;13.506;2023-04-08T06:49:49;7.70;99.90
19781;DHT22;10050;55.492;13.506;2023-04-08T06:52:15;7.90;99.90
19781;DHT22;10050;55.492;13.506;2023-04-08T06:54:41;8.00;99.90
19781;DHT22;10050;55.492;13.506;2023-04-08T06:57:07;8.20;99.90
19781;DHT22;10050;55.492;13.506;2023-04-08T06:59:32;8.20;99.90
19781;DHT22;10050;55.492;13.506;2023-04-08T07:01:58;8.40;99.90
19781;DHT22;10050;55.492;13.506;2023-04-08T07:04:24;8.50;99.90
19781;DHT22;10050;55.492;13.506;2023-04-08T07:06:51;8.70;99.90
19781;DHT22;10050;55.492;13.506;2023-04-08T07:09:16;8.90;99.90
19781;DHT22;10050;55.492;13.506;2023-04-08T07:11:42;9.10;99.90
19781;DHT22;10050;55.492;13.506;2023-04-08T07:14:08;9.40;99.90
19781;DHT22;10050;55.492;13.506;2023-04-08T07:16:33;9.70;99.90
19781;DHT22;10050;55.492;13.506;2023-04-08T07:18:59;10.10;99.90
19781;DHT22;10050;55.492;13.506;2023-04-08T07:21:25;10.50;99.90
19781;DHT22;10050;55.492;13.506;2023-04-08T07:23:51;11.00;99.90
19781;DHT22;10050;55.492;13.506;2023-04-08T07:26:17;11.90;99.90
19781;DHT22;10050;55.492;13.506;2023-04-08T07:28:43;12.90;99.90
19781;DHT22;10050;55.492;13.506;2023-04-08T07:31:16;14.00;99.90
19781;DHT22;10050;55.492;13.506;2023-04-08T07:33:43;14.90;99.90
19781;DHT22;10050;55.492;13.506;2023-04-08T07:36:09;16.20;99.90
19781;DHT22;10050;55.492;13.506;2023-04-08T07:38:36;16.80;99.90
19781;DHT22;10050;55.492;13.506;2023-04-08T07:41:02;17.40;99.90
19781;DHT22;10050;55.492;13.506;2023-04-08T07:43:27;17.90;99.90
19781;DHT22;10050;55.492;13.506;2023-04-08T07:45:59;18.10;99.90
19781;DHT22;10050;55.492;13.506;2023-04-08T07:48:27;17.70;99.90
19781;DHT22;10050;55.492;13.506;2023-04-08T07:50:53;18.00;99.90
19781;DHT22;10050;55.492;13.506;2023-04-08T07:53:18;17.90;99.90
19781;DHT22;10050;55.492;13.506;2023-04-08T07:55:44;17.60;99.90
19781;DHT22;10050;55.492;13.506;2023-04-08T07:58:09;17.60;99.90
19781;DHT22;10050;55.492;13.506;2023-04-08T08:00:35;18.30;99.90
19781;DHT22;10050;55.492;13.506;2023-04-08T08:03:01;18.30;99.90
19781;DHT22;10050;55.492;13.506;2023-04-08T08:05:26;18.30;99.90
19781;DHT22;10050;55.492;13.506;2023-04-08T08:07:52;18.30;99.90
19781;DHT22;10050;55.492;13.506;2023-04-08T08:10:17;18.30;99.90
19781;DHT22;10050;55.492;13.506;2023-04-08T08:12:43;18.00;99.90
19781;DHT22;10050;55.492;13.506;2023-04-08T08:15:09;18.40;99.90
19781;DHT22;10050;55.492;13.506;2023-04-08T08:17:35;18.30;99.90
19781;DHT22;10050;55.492;13.506;2023-04-08T08:20:01;18.90;99.90
19781;DHT22;10050;55.492;13.506;2023-04-08T08:22:28;18.80;99.90
19781;DHT22;10050;55.492;13.506;2023-04-08T08:24:58;19.00;99.90
19781;DHT22;10050;55.492;13.506;2023-04-08T08:27:24;18.60;99.90
19781;DHT22;10050;55.492;13.506;2023-04-08T08:29:50;18.80;99.90
19781;DHT22;10050;55.492;13.506;2023-04-08T08:32:16;19.20;99.90
19781;DHT22;10050;55.492;13.506;2023-04-08T08:34:42;19.40;99.90
19781;DHT22;10050;55.492;13.506;2023-04-08T08:37:08;19.50;99.90
19781;DHT22;10050;55.492;13.506;2023-04-08T08:39:33;20.00;99.90
19781;DHT22;10050;55.492;13.506;2023-04-08T08:41:59;19.80;99.90
19781;DHT22;10050;55.492;13.506;2023-04-08T08:44:25;19.50;99.90
19781;DHT22;10050;55.492;13.506;2023-04-08T08:46:52;19.50;99.90
19781;DHT22;10050;55.492;13.506;2023-04-08T08:49:18;19.40;99.90
19781;DHT22;10050;55.492;13.506;2023-04-08T08:51:47;19.40;99.90
19781;DHT22;10050;55.492;13.506;2023-04-08T08:54:14;19.60;99.90
19781;DHT22;10050;55.492;13.506;2023-04-08T08:56:40;19.10;99.90
19781;DHT22;10050;55.492;13.506;2023-04-08T08:59:08;19.20;99.90
19781;DHT22;10050;55.492;13.506;2023-04-08T09:01:37;19.50;99.90
19781;DHT22;10050;55.492;13.506;2023-04-08T09:06:41;20.20;99.90
19781;DHT22;10050;55.492;13.506;2023-04-08T09:09:07;20.50;99.90
19781;DHT22;10050;55.492;13.506;2023-04-08T09:11:40;20.10;99.90
19781;DHT22;10050;55.492;13.506;2023-04-08T09:14:23;19.90;99.90
19781;DHT22;10050;55.492;13.506;2023-04-08T09:16:50;19.70;99.90
19781;DHT22;10050;55.492;13.506;2023-04-08T09:19:16;20.00;99.90
19781;DHT22;10050;55.492;13.506;2023-04-08T09:21:42;20.30;99.90
19781;DHT22;10050;55.492;13.506;2023-04-08T09:24:09;20.50;99.90
19781;DHT22;10050;55.492;13.506;2023-04-08T09:26:37;20.30;99.00
19781;DHT22;10050;55.492;13.506;2023-04-08T09:29:05;20.10;99.00
19781;DHT22;10050;55.492;13.506;2023-04-08T09:31:33;20.30;99.90
19781;DHT22;10050;55.492;13.506;2023-04-08T09:34:13;20.10;99.10
19781;DHT22;10050;55.492;13.506;2023-04-08T09:36:41;19.60;99.70
19781;DHT22;10050;55.492;13.506;2023-04-08T09:39:06;19.40;98.10
19781;DHT22;10050;55.492;13.506;2023-04-08T09:41:37;19.20;99.80
19781;DHT22;10050;55.492;13.506;2023-04-08T09:44:05;19.90;99.90
19781;DHT22;10050;55.492;13.506;2023-04-08T09:46:59;19.60;99.10
19781;DHT22;10050;55.492;13.506;2023-04-08T09:49:36;19.60;99.90
19781;DHT22;10050;55.492;13.506;2023-04-08T09:52:06;19.40;99.90
19781;DHT22;10050;55.492;13.506;2023-04-08T09:54:54;18.90;99.90
19781;DHT22;10050;55.492;13.506;2023-04-08T09:57:43;19.20;99.90
19781;DHT22;10050;55.492;13.506;2023-04-08T10:00:14;18.90;99.60
19781;DHT22;10050;55.492;13.506;2023-04-08T10:05:18;18.80;99.90
19781;DHT22;10050;55.492;13.506;2023-04-08T10:07:45;18.80;99.00
19781;DHT22;10050;55.492;13.506;2023-04-08T10:10:12;19.00;99.20
19781;DHT22;10050;55.492;13.506;2023-04-08T10:12:38;19.10;99.30
19781;DHT22;10050;55.492;13.506;2023-04-08T10:15:33;19.20;99.90
19781;DHT22;10050;55.492;13.506;2023-04-08T10:23:02;19.00;99.00
19781;DHT22;10050;55.492;13.506;2023-04-08T10:27:57;19.00;99.90
19781;DHT22;10050;55.492;13.506;2023-04-08T10:32:55;18.80;98.30
19781;DHT22;10050;55.492;13.506;2023-04-08T10:35:33;18.60;98.40
19781;DHT22;10050;55.492;13.506;2023-04-08T10:38:00;18.60;97.90
19781;DHT22;10050;55.492;13.506;2023-04-08T10:40:25;18.80;98.40
19781;DHT22;10050;55.492;13.506;2023-04-08T10:42:58;18.90;98.40
19781;DHT22;10050;55.492;13.506;2023-04-08T10:45:24;19.00;98.70
19781;DHT22;10050;55.492;13.506;2023-04-08T10:47:50;19.00;97.50
19781;DHT22;10050;55.492;13.506;2023-04-08T10:50:18;19.00;97.70
19781;DHT22;10050;55.492;13.506;2023-04-08T10:52:51;18.40;96.80
19781;DHT22;10050;55.492;13.506;2023-04-08T10:55:24;18.20;96.60
19781;DHT22;10050;55.492;13.506;2023-04-08T10:57:51;18.00;96.90
19781;DHT22;10050;55.492;13.506;2023-04-08T11:00:18;18.10;97.80
19781;DHT22;10050;55.492;13.506;2023-04-08T11:02:44;18.30;96.60
19781;DHT22;10050;55.492;13.506;2023-04-08T11:05:10;18.20;97.20
19781;DHT22;10050;55.492;13.506;2023-04-08T11:07:40;18.20;97.40
19781;DHT22;10050;55.492;13.506;2023-04-08T11:10:07;18.20;98.00
19781;DHT22;10050;55.492;13.506;2023-04-08T11:12:34;17.80;97.60
19781;DHT22;10050;55.492;13.506;2023-04-08T11:15:01;17.50;97.50
19781;DHT22;10050;55.492;13.506;2023-04-08T11:17:27;17.10;98.70
19781;DHT22;10050;55.492;13.506;2023-04-08T11:19:53;17.20;99.40
19781;DHT22;10050;55.492;13.506;2023-04-08T11:22:19;17.40;98.40
19781;DHT22;10050;55.492;13.506;2023-04-08T11:24:45;17.40;97.60
19781;DHT22;10050;55.492;13.506;2023-04-08T11:27:12;17.10;97.20
19781;DHT22;10050;55.492;13.506;2023-04-08T11:29:38;17.10;99.10
19781;DHT22;10050;55.492;13.506;2023-04-08T11:32:04;17.00;99.90
19781;DHT22;10050;55.492;13.506;2023-04-08T11:34:30;17.10;99.90
19781;DHT22;10050;55.492;13.506;2023-04-08T11:36:56;17.10;99.40
19781;DHT22;10050;55.492;13.506;2023-04-08T11:39:23;17.10;98.20
19781;DHT22;10050;55.492;13.506;2023-04-08T11:41:48;16.90;99.20
19781;DHT22;10050;55.492;13.506;2023-04-08T11:44:14;17.20;99.70
19781;DHT22;10050;55.492;13.506;2023-04-08T11:46:40;17.10;99.30
19781;DHT22;10050;55.492;13.506;2023-04-08T11:49:07;17.00;99.60
19781;DHT22;10050;55.492;13.506;2023-04-08T11:51:36;16.90;99.70
19781;DHT22;10050;55.492;13.506;2023-04-08T11:54:31;16.80;99.90
19781;DHT22;10050;55.492;13.506;2023-04-08T11:56:58;16.60;98.30
19781;DHT22;10050;55.492;13.506;2023-04-08T11:59:24;16.60;98.90
19781;DHT22;10050;55.492;13.506;2023-04-08T12:01:53;16.60;98.30
19781;DHT22;10050;55.492;13.506;2023-04-08T12:04:19;16.50;98.40
19781;DHT22;10050;55.492;13.506;2023-04-08T12:06:45;16.30;98.30
19781;DHT22;10050;55.492;13.506;2023-04-08T12:09:12;16.30;99.70
19781;DHT22;10050;55.492;13.506;2023-04-08T12:11:38;16.40;99.90
19781;DHT22;10050;55.492;13.506;2023-04-08T12:14:05;16.50;99.90
19781;DHT22;10050;55.492;13.506;2023-04-08T12:16:31;16.50;99.00
19781;DHT22;10050;55.492;13.506;2023-04-08T12:18:57;16.40;99.20
19781;DHT22;10050;55.492;13.506;2023-04-08T12:21:22;16.30;99.80
19781;DHT22;10050;55.492;13.506;2023-04-08T12:23:48;16.40;99.90
19781;DHT22;10050;55.492;13.506;2023-04-08T12:26:14;16.70;99.90
19781;DHT22;10050;55.492;13.506;2023-04-08T12:28:39;16.80;99.90
19781;DHT22;10050;55.492;13.506;2023-04-08T12:31:05;16.90;99.90
19781;DHT22;10050;55.492;13.506;2023-04-08T12:33:31;16.80;99.90
19781;DHT22;10050;55.492;13.506;2023-04-08T12:35:57;16.60;99.60
19781;DHT22;10050;55.492;13.506;2023-04-08T12:38:24;16.70;99.90
19781;DHT22;10050;55.492;13.506;2023-04-08T12:40:51;16.70;98.40
19781;DHT22;10050;55.492;13.506;2023-04-08T12:43:17;16.80;99.90
19781;DHT22;10050;55.492;13.506;2023-04-08T12:45:43;16.80;99.90
19781;DHT22;10050;55.492;13.506;2023-04-08T12:48:08;16.80;99.90
19781;DHT22;10050;55.492;13.506;2023-04-08T12:50:34;16.80;99.70
19781;DHT22;10050;55.492;13.506;2023-04-08T12:53:02;16.70;98.40
19781;DHT22;10050;55.492;13.506;2023-04-08T12:55:28;16.60;99.90
19781;DHT22;10050;55.492;13.506;2023-04-08T12:57:54;16.70;99.30
19781;DHT22;10050;55.492;13.506;2023-04-08T13:00:19;16.40;99.70
19781;DHT22;10050;55.492;13.506;2023-04-08T13:02:45;16.40;99.10
19781;DHT22;10050;55.492;13.506;2023-04-08T13:05:11;16.40;99.90
19781;DHT22;10050;55.492;13.506;2023-04-08T13:07:36;16.70;99.90
19781;DHT22;10050;55.492;13.506;2023-04-08T13:10:02;16.70;99.90
19781;DHT22;10050;55.492;13.506;2023-04-08T13:12:28;16.50;98.90
19781;DHT22;10050;55.492;13.506;2023-04-08T13:14:54;16.30;98.70
19781;DHT22;10050;55.492;13.506;2023-04-08T13:17:20;16.10;98.60
19781;DHT22;10050;55.492;13.506;2023-04-08T13:19:46;16.20;99.10
19781;DHT22;10050;55.492;13.506;2023-04-08T13:22:15;16.20;99.50
19781;DHT22;10050;55.492;13.506;2023-04-08T13:24:41;16.30;99.90
19781;DHT22;10050;55.492;13.506;2023-04-08T13:27:07;16.10;99.90
19781;DHT22;10050;55.492;13.506;2023-04-08T13:29:33;16.00;99.90
19781;DHT22;10050;55.492;13.506;2023-04-08T13:31:59;16.00;99.60
19781;DHT22;10050;55.492;13.506;2023-04-08T13:34:26;15.90;99.90
19781;DHT22;10050;55.492;13.506;2023-04-08T13:36:51;16.00;99.50
19781;DHT22;10050;55.492;13.506;2023-04-08T13:39:17;16.00;98.80
19781;DHT22;10050;55.492;13.506;2023-04-08T13:41:43;16.00;98.60
19781;DHT22;10050;55.492;13.506;2023-04-08T13:44:09;16.00;99.10
19781;DHT22;10050;55.492;13.506;2023-04-08T13:46:34;16.00;98.30
19781;DHT22;10050;55.492;13.506;2023-04-08T13:49:00;16.10;99.20
19781;DHT22;10050;55.492;13.506;2023-04-08T13:51:27;16.20;99.40
19781;DHT22;10050;55.492;13.506;2023-04-08T13:53:53;15.90;99.90
19781;DHT22;10050;55.492;13.506;2023-04-08T13:56:19;15.70;98.60
19781;DHT22;10050;55.492;13.506;2023-04-08T13:58:45;15.70;99.10
19781;DHT22;10050;55.492;13.506;2023-04-08T14:01:11;15.80;98.80
19781;DHT22;10050;55.492;13.506;2023-04-08T14:03:37;15.90;98.50
19781;DHT22;10050;55.492;13.506;2023-04-08T14:06:03;15.90;98.30
19781;DHT22;10050;55.492;13.506;2023-04-08T14:08:29;15.80;97.70
19781;DHT22;10050;55.492;13.506;2023-04-08T14:10:55;15.80;98.20
19781;DHT22;10050;55.492;13.506;2023-04-08T14:13:21;15.80;98.30
19781;DHT22;10050;55.492;13.506;2023-04-08T14:15:47;15.90;99.00
19781;DHT22;10050;55.492;13.506;2023-04-08T14:18:14;16.00;98.10
19781;DHT22;10050;55.492;13.506;2023-04-08T14:20:42;15.80;98.20
19781;DHT22;10050;55.492;13.506;2023-04-08T14:23:07;16.00;98.20
19781;DHT22;10050;55.492;13.506;2023-04-08T14:25:33;16.20;99.40
19781;DHT22;10050;55.492;13.506;2023-04-08T14:27:59;15.90;96.50
19781;DHT22;10050;55.492;13.506;2023-04-08T14:30:25;15.80;98.60
19781;DHT22;10050;55.492;13.506;2023-04-08T14:32:51;15.60;97.40
19781;DHT22;10050;55.492;13.506;2023-04-08T14:35:17;15.60;98.80
19781;DHT22;10050;55.492;13.506;2023-04-08T14:37:42;15.40;97.10
19781;DHT22;10050;55.492;13.506;2023-04-08T14:40:09;15.40;98.30
19781;DHT22;10050;55.492;13.506;2023-04-08T14:42:35;15.40;98.40
19781;DHT22;10050;55.492;13.506;2023-04-08T14:45:00;15.40;97.40
19781;DHT22;10050;55.492;13.506;2023-04-08T14:47:26;15.00;98.00
19781;DHT22;10050;55.492;13.506;2023-04-08T14:49:52;14.90;98.50
19781;DHT22;10050;55.492;13.506;2023-04-08T14:52:17;14.90;99.40
19781;DHT22;10050;55.492;13.506;2023-04-08T14:54:43;14.90;99.50
19781;DHT22;10050;55.492;13.506;2023-04-08T14:57:09;14.70;98.30
19781;DHT22;10050;55.492;13.506;2023-04-08T14:59:35;14.60;99.70
19781;DHT22;10050;55.492;13.506;2023-04-08T15:02:01;14.60;99.90
19781;DHT22;10050;55.492;13.506;2023-04-08T15:04:27;14.60;98.30
19781;DHT22;10050;55.492;13.506;2023-04-08T15:06:52;14.40;98.90
19781;DHT22;10050;55.492;13.506;2023-04-08T15:09:18;14.20;97.90
19781;DHT22;10050;55.492;13.506;2023-04-08T15:11:43;14.20;99.40
19781;DHT22;10050;55.492;13.506;2023-04-08T15:14:09;14.20;99.60
19781;DHT22;10050;55.492;13.506;2023-04-08T15:16:36;14.20;98.50
19781;DHT22;10050;55.492;13.506;2023-04-08T15:19:01;14.00;98.20
19781;DHT22;10050;55.492;13.506;2023-04-08T15:21:27;13.90;97.90
19781;DHT22;10050;55.492;13.506;2023-04-08T15:23:53;14.00;99.60
19781;DHT22;10050;55.492;13.506;2023-04-08T15:26:18;14.00;98.60
19781;DHT22;10050;55.492;13.506;2023-04-08T15:28:44;13.80;97.70
19781;DHT22;10050;55.492;13.506;2023-04-08T15:31:10;13.90;98.00
19781;DHT22;10050;55.492;13.506;2023-04-08T15:33:36;13.80;98.30
19781;DHT22;10050;55.492;13.506;2023-04-08T15:36:07;13.70;98.00
19781;DHT22;10050;55.492;13.506;2023-04-08T15:38:33;13.60;98.10